createdAt,value
2022-09-09T00:01:01.113Z,100625.57
2022-09-09T00:02:13.957Z,100636.45
2022-09-09T00:03:29.168Z,100619.19
2022-09-09T00:04:36.116Z,100628.73
2022-09-09T00:06:03.618Z,100620.69
2022-09-09T00:07:13.411Z,100620.69
2022-09-09T00:08:22.969Z,100620.23
2022-09-09T00:09:32.667Z,100615.99
2022-09-09T00:10:41.040Z,100614.00
2022-09-09T00:11:50.756Z,100612.16
2022-09-09T00:13:25.828Z,100615.69
2022-09-09T00:14:43.413Z,100614.00
2022-09-09T00:16:09.544Z,100618.76
2022-09-09T00:17:25.137Z,100608.30
2022-09-09T00:18:53.946Z,100611.14
2022-09-09T00:20:06.933Z,100611.14
2022-09-09T00:21:16.485Z,100616.62
2022-09-09T00:22:23.381Z,100614.20
2022-09-09T00:23:29.989Z,100611.79
2022-09-09T00:24:51.747Z,100609.95
2022-09-09T00:26:24.129Z,100616.42
2022-09-09T00:27:33.717Z,100612.75
2022-09-09T00:28:44.906Z,100613.86
2022-09-09T00:29:54.582Z,100613.86
2022-09-09T00:31:04.070Z,100607.62
2022-09-09T00:32:16.967Z,100615.50
2022-09-09T00:33:30.289Z,100613.81
2022-09-09T00:34:36.716Z,100604.94
2022-09-09T00:35:47.706Z,100605.90
2022-09-09T00:36:54.119Z,100605.90
2022-09-09T00:38:01.126Z,100611.25
2022-09-09T00:39:05.991Z,100609.57
2022-09-09T00:40:26.206Z,100609.57
2022-09-09T00:41:55.324Z,100614.20
2022-09-09T00:43:31.091Z,100618.56
2022-09-09T00:44:38.466Z,100631.27
2022-09-09T00:46:03.479Z,100631.27
2022-09-09T00:47:47.209Z,100627.02
2022-09-09T00:48:59.997Z,100631.76
2022-09-09T00:50:06.933Z,100631.76
2022-09-09T00:51:16.399Z,100624.98
2022-09-09T00:52:39.660Z,100624.98
2022-09-09T00:53:58.652Z,100630.59
2022-09-09T00:55:04.403Z,100630.59
2022-09-09T00:56:14.246Z,100633.39
2022-09-09T00:57:30.214Z,100636.44
2022-09-09T00:58:35.731Z,100631.09
2022-09-09T01:01:12.937Z,100628.56
2022-09-09T01:02:25.944Z,100631.61
2022-09-09T01:03:08.515Z,100628.56
2022-09-09T01:03:56.762Z,100631.61
2022-09-09T01:05:05.258Z,100637.95
2022-09-09T01:06:19.240Z,100635.54
2022-09-09T01:07:23.207Z,100635.54
2022-09-09T01:08:50.917Z,100637.75
2022-09-09T01:10:00.687Z,100637.75
2022-09-09T01:11:04.763Z,100635.06
2022-09-09T01:12:20.223Z,100637.02
2022-09-09T01:13:33.016Z,100637.02
2022-09-09T01:14:39.942Z,100640.94
2022-09-09T01:15:47.277Z,100640.94
2022-09-09T01:16:54.817Z,100632.91
2022-09-09T01:18:07.682Z,100639.59
2022-09-09T01:19:16.146Z,100639.59
2022-09-09T01:20:27.311Z,100638.49
2022-09-09T01:21:42.878Z,100641.90
2022-09-09T01:22:55.637Z,100641.90
2022-09-09T01:24:24.511Z,100643.62
2022-09-09T01:25:53.806Z,100637.39
2022-09-09T01:27:00.738Z,100645.67
2022-09-09T01:28:07.584Z,100654.70
2022-09-09T01:29:14.859Z,100645.82
2022-09-09T01:30:20.197Z,100651.17
2022-09-09T01:31:32.783Z,100650.55
2022-09-09T01:32:47.663Z,100647.77
2022-09-09T01:33:52.050Z,100655.65
2022-09-09T01:34:55.960Z,100652.12
2022-09-09T01:36:13.658Z,100652.12
2022-09-09T01:37:15.710Z,100652.12
2022-09-09T01:38:20.053Z,100652.12
2022-09-09T01:39:24.040Z,100655.65
2022-09-09T01:40:29.496Z,100653.85
2022-09-09T01:41:35.391Z,100658.33
2022-09-09T01:42:39.417Z,100658.33
2022-09-09T01:43:43.394Z,100649.20
2022-09-09T01:44:47.324Z,100649.20
2022-09-09T01:45:54.940Z,100645.56
2022-09-09T01:47:02.212Z,100645.56
2022-09-09T01:48:09.046Z,100645.56
2022-09-09T01:49:15.885Z,100643.84
2022-09-09T01:50:21.062Z,100643.84
2022-09-09T01:51:25.752Z,100653.59
2022-09-09T01:52:35.283Z,100642.16
2022-09-09T01:53:41.969Z,100642.16
2022-09-09T01:54:47.679Z,100641.31
2022-09-09T01:56:04.852Z,100641.31
2022-09-09T01:57:17.667Z,100644.09
2022-09-09T01:59:00.628Z,100644.09
2022-09-09T02:00:11.081Z,100635.34
2022-09-09T02:01:21.011Z,100639.15
2022-09-09T02:02:58.671Z,100639.15
2022-09-09T02:04:05.621Z,100634.64
2022-09-09T02:05:29.170Z,100633.80
2022-09-09T02:06:38.718Z,100640.11
2022-09-09T02:07:47.259Z,100636.47
2022-09-09T02:08:53.675Z,100636.47
2022-09-09T02:10:24.477Z,100634.90
2022-09-09T02:11:30.259Z,100627.83
2022-09-09T02:12:34.185Z,100628.78
2022-09-09T02:13:40.459Z,100628.78
2022-09-09T02:15:11.506Z,100635.23
2022-09-09T02:16:24.492Z,100638.02
2022-09-09T02:17:31.469Z,100633.77
2022-09-09T02:18:59.519Z,100633.77
2022-09-09T02:20:12.081Z,100634.88
2022-09-09T02:21:17.652Z,100643.55
2022-09-09T02:22:26.656Z,100643.55
2022-09-09T02:23:33.629Z,100639.05
2022-09-09T02:24:40.138Z,100639.05
2022-09-09T02:25:45.603Z,100644.65
2022-09-09T02:26:52.930Z,100639.41
2022-09-09T02:27:57.808Z,100639.41
2022-09-09T02:29:06.310Z,100635.16
2022-09-09T02:30:14.022Z,100635.16
2022-09-09T02:31:21.235Z,100636.98
2022-09-09T02:32:26.371Z,100644.17
2022-09-09T02:33:39.212Z,100637.97
2022-09-09T02:34:46.157Z,100643.44
2022-09-09T02:35:52.332Z,100636.39
2022-09-09T02:37:00.667Z,100648.30
2022-09-09T02:38:07.710Z,100645.62
2022-09-09T02:39:12.764Z,100645.62
2022-09-09T02:40:19.118Z,100641.03
2022-09-09T02:41:33.480Z,100637.63
2022-09-09T02:42:42.925Z,100637.14
2022-09-09T02:43:47.094Z,100653.92
2022-09-09T02:44:51.339Z,100646.25
2022-09-09T02:46:00.879Z,100650.27
2022-09-09T02:47:33.219Z,100640.56
2022-09-09T02:48:41.852Z,100640.56
2022-09-09T02:49:51.440Z,100655.13
2022-09-09T02:50:58.482Z,100645.67
2022-09-09T02:52:14.378Z,100643.00
2022-09-09T02:53:20.350Z,100646.87
2022-09-09T02:54:35.235Z,100647.36
2022-09-09T02:55:45.075Z,100644.80
2022-09-09T02:56:54.249Z,100649.55
2022-09-09T02:58:00.517Z,100645.39
2022-09-09T02:59:08.871Z,100642.97
2022-09-09T03:00:13.756Z,100649.16
2022-09-09T03:01:19.546Z,100644.91
2022-09-09T03:02:23.608Z,100639.56
2022-09-09T03:03:28.086Z,100639.56
2022-09-09T03:04:32.195Z,100646.87
2022-09-09T03:05:36.854Z,100646.87
2022-09-09T03:06:41.232Z,100648.70
2022-09-09T03:07:45.158Z,100643.21
2022-09-09T03:08:49.772Z,100649.40
2022-09-09T03:09:53.923Z,100647.58
2022-09-09T03:11:02.176Z,100651.37
2022-09-09T03:12:06.245Z,100638.71
2022-09-09T03:13:10.621Z,100636.42
2022-09-09T03:14:16.457Z,100643.45
2022-09-09T03:15:20.451Z,100643.45
2022-09-09T03:16:26.503Z,100644.44
2022-09-09T03:17:30.505Z,100640.05
2022-09-09T03:18:34.575Z,100644.44
2022-09-09T03:19:38.645Z,100642.86
2022-09-09T03:20:43.732Z,100647.33
2022-09-09T03:21:50.279Z,100647.33
2022-09-09T03:22:55.974Z,100647.33
2022-09-09T03:23:59.901Z,100645.63
2022-09-09T03:25:03.945Z,100649.29
2022-09-09T03:26:08.190Z,100647.33
2022-09-09T03:27:12.130Z,100649.05
2022-09-09T03:28:16.265Z,100646.23
2022-09-09T03:29:20.179Z,100651.37
2022-09-09T03:30:26.331Z,100655.48
2022-09-09T03:31:30.316Z,100652.95
2022-09-09T03:32:34.347Z,100652.59
2022-09-09T03:33:41.828Z,100657.55
2022-09-09T03:34:49.531Z,100657.55
2022-09-09T03:35:54.335Z,100649.29
2022-09-09T03:36:58.585Z,100653.48
2022-09-09T03:38:04.124Z,100661.11
2022-09-09T03:39:08.026Z,100661.11
2022-09-09T03:40:13.148Z,100660.52
2022-09-09T03:41:17.152Z,100663.14
2022-09-09T03:42:21.244Z,100663.14
2022-09-09T03:43:28.603Z,100657.31
2022-09-09T03:44:32.972Z,100663.20
2022-09-09T03:45:36.921Z,100670.49
2022-09-09T03:46:41.052Z,100670.49
2022-09-09T03:47:45.019Z,100667.67
2022-09-09T03:48:49.275Z,100667.67
2022-09-09T03:49:53.188Z,100673.16
2022-09-09T03:50:57.656Z,100665.55
2022-09-09T03:52:01.663Z,100667.27
2022-09-09T03:53:05.566Z,100667.27
2022-09-09T03:54:14.672Z,100667.54
2022-09-09T03:55:15.384Z,100674.59
2022-09-09T03:56:21.459Z,100667.83
2022-09-09T03:57:25.303Z,100674.28
2022-09-09T03:58:29.640Z,100674.28
2022-09-09T03:59:33.743Z,100676.09
2022-09-09T04:00:37.728Z,100676.09
2022-09-09T04:01:42.148Z,100681.69
2022-09-09T04:02:46.147Z,100681.69
2022-09-09T04:03:50.135Z,100681.14
2022-09-09T04:04:54.066Z,100693.73
2022-09-09T04:06:00.344Z,100693.73
2022-09-09T04:07:04.917Z,100690.18
2022-09-09T04:08:08.846Z,100690.18
2022-09-09T04:09:14.307Z,100681.66
2022-09-09T04:10:19.846Z,100685.22
2022-09-09T04:11:23.947Z,100685.22
2022-09-09T04:12:27.865Z,100682.37
2022-09-09T04:13:31.859Z,100683.50
2022-09-09T04:14:35.775Z,100678.25
2022-09-09T04:15:39.677Z,100675.73
2022-09-09T04:16:43.819Z,100675.73
2022-09-09T04:17:47.804Z,100686.91
2022-09-09T04:18:51.743Z,100677.71
2022-09-09T04:19:55.737Z,100676.19
2022-09-09T04:20:59.828Z,100666.57
2022-09-09T04:22:03.763Z,100666.87
2022-09-09T04:23:07.684Z,100665.72
2022-09-09T04:24:11.681Z,100666.98
2022-09-09T04:25:18.114Z,100666.98
2022-09-09T04:26:25.205Z,100669.51
2022-09-09T04:27:29.155Z,100664.68
2022-09-09T04:28:37.170Z,100670.90
2022-09-09T04:29:41.184Z,100670.90
2022-09-09T04:30:46.388Z,100679.29
2022-09-09T04:31:55.423Z,100682.84
2022-09-09T04:32:56.157Z,100690.05
2022-09-09T04:34:01.715Z,100693.44
2022-09-09T04:35:08.192Z,100694.70
2022-09-09T04:36:12.507Z,100691.14
2022-09-09T04:37:16.435Z,100693.55
2022-09-09T04:38:20.402Z,100693.55
2022-09-09T04:39:24.460Z,100691.43
2022-09-09T04:40:29.180Z,100688.70
2022-09-09T04:41:33.179Z,100693.36
2022-09-09T04:42:40.438Z,100697.44
2022-09-09T04:43:44.758Z,100700.69
2022-09-09T04:44:48.760Z,100706.34
2022-09-09T04:45:53.264Z,100701.29
2022-09-09T04:46:57.426Z,100701.29
2022-09-09T04:48:01.592Z,100719.52
2022-09-09T04:49:05.557Z,100707.44
2022-09-09T04:50:10.475Z,100713.11
2022-09-09T04:51:15.538Z,100713.11
2022-09-09T04:52:19.498Z,100718.77
2022-09-09T04:53:23.767Z,100712.82
2022-09-09T04:54:27.737Z,100712.82
2022-09-09T04:55:32.125Z,100718.75
2022-09-09T04:56:36.122Z,100727.24
2022-09-09T04:57:40.885Z,100713.34
2022-09-09T04:58:47.802Z,100719.97
2022-09-09T04:59:52.866Z,100718.68
2022-09-09T05:00:58.403Z,100717.89
2022-09-09T05:02:02.374Z,100712.58
2022-09-09T05:03:08.542Z,100715.88
2022-09-09T05:04:12.560Z,100709.52
2022-09-09T05:05:18.115Z,100712.53
2022-09-09T05:06:23.571Z,100713.31
2022-09-09T05:07:28.777Z,100713.31
2022-09-09T05:08:32.808Z,100711.55
2022-09-09T05:09:36.764Z,100711.55
2022-09-09T05:10:41.356Z,100718.56
2022-09-09T05:11:47.440Z,100730.09
2022-09-09T05:12:55.192Z,100734.38
2022-09-09T05:13:59.322Z,100734.38
2022-09-09T05:15:03.421Z,100726.25
2022-09-09T05:16:07.628Z,100726.25
2022-09-09T05:17:13.607Z,100729.14
2022-09-09T05:18:19.800Z,100729.56
2022-09-09T05:19:25.295Z,100724.78
2022-09-09T05:20:30.363Z,100724.78
2022-09-09T05:21:35.352Z,100734.94
2022-09-09T05:22:39.836Z,100731.97
2022-09-09T05:23:43.914Z,100732.03
2022-09-09T05:24:48.288Z,100738.48
2022-09-09T05:25:59.172Z,100729.51
2022-09-09T05:27:03.342Z,100729.51
2022-09-09T05:28:07.402Z,100725.97
2022-09-09T05:29:11.442Z,100718.20
2022-09-09T05:30:16.895Z,100720.88
2022-09-09T05:31:21.422Z,100718.87
2022-09-09T05:32:26.940Z,100713.12
2022-09-09T05:33:30.931Z,100713.12
2022-09-09T05:34:34.867Z,100722.54
2022-09-09T05:35:38.702Z,100714.33
2022-09-09T05:36:42.777Z,100713.84
2022-09-09T05:37:46.767Z,100713.84
2022-09-09T05:38:51.048Z,100708.78
2022-09-09T05:39:54.986Z,100708.78
2022-09-09T05:40:59.129Z,100697.95
2022-09-09T05:42:04.849Z,100694.75
2022-09-09T05:43:08.807Z,100697.13
2022-09-09T05:44:12.964Z,100695.63
2022-09-09T05:45:16.941Z,100702.38
2022-09-09T05:46:24.597Z,100709.50
2022-09-09T05:47:28.545Z,100710.19
2022-09-09T05:48:33.686Z,100711.17
2022-09-09T05:49:37.734Z,100707.78
2022-09-09T05:50:42.012Z,100705.42
2022-09-09T05:51:46.047Z,100705.42
2022-09-09T05:52:51.520Z,100710.17
2022-09-09T05:53:55.648Z,100711.84
2022-09-09T05:54:59.646Z,100711.84
2022-09-09T05:56:06.239Z,100709.30
2022-09-09T05:57:10.497Z,100709.30
2022-09-09T05:58:14.486Z,100707.78
2022-09-09T05:59:18.442Z,100707.78
2022-09-09T06:00:23.731Z,100719.30
2022-09-09T06:01:31.530Z,100724.38
2022-09-09T06:02:35.657Z,100721.66
2022-09-09T06:03:41.451Z,100722.36
2022-09-09T06:04:45.481Z,100722.36
2022-09-09T06:05:53.969Z,100715.61
2022-09-09T06:07:02.845Z,100722.02
2022-09-09T06:08:05.164Z,100718.31
2022-09-09T06:09:10.661Z,100724.56
2022-09-09T06:10:16.328Z,100726.78
2022-09-09T06:11:24.634Z,100721.02
2022-09-09T06:12:28.527Z,100728.45
2022-09-09T06:13:32.923Z,100727.42
2022-09-09T06:14:36.905Z,100727.42
2022-09-09T06:15:40.831Z,100721.35
2022-09-09T06:16:44.884Z,100725.58
2022-09-09T06:17:50.390Z,100726.77
2022-09-09T06:18:55.684Z,100726.77
2022-09-09T06:20:00.952Z,100733.87
2022-09-09T06:21:07.109Z,100743.52
2022-09-09T06:22:11.044Z,100743.52
2022-09-09T06:23:14.991Z,100735.55
2022-09-09T06:24:18.914Z,100743.01
2022-09-09T06:25:22.863Z,100734.88
2022-09-09T06:26:29.264Z,100734.19
2022-09-09T06:27:34.304Z,100734.19
2022-09-09T06:28:38.962Z,100712.20
2022-09-09T06:29:42.855Z,100713.53
2022-09-09T06:30:47.110Z,100713.53
2022-09-09T06:31:51.076Z,100710.28
2022-09-09T06:32:58.827Z,100719.92
2022-09-09T06:34:06.731Z,100730.09
2022-09-09T06:35:10.722Z,100730.42
2022-09-09T06:36:20.285Z,100729.74
2022-09-09T06:37:24.279Z,100729.74
2022-09-09T06:38:28.581Z,100730.23
2022-09-09T06:39:32.589Z,100735.13
2022-09-09T06:40:36.597Z,100732.08
2022-09-09T06:41:40.595Z,100729.69
2022-09-09T06:42:44.580Z,100729.69
2022-09-09T06:43:50.520Z,100735.11
2022-09-09T06:44:54.490Z,100747.79
2022-09-09T06:46:04.101Z,100747.79
2022-09-09T06:47:10.052Z,100736.40
2022-09-09T06:48:13.714Z,100742.06
2022-09-09T06:49:17.772Z,100742.06
2022-09-09T06:50:22.005Z,100742.70
2022-09-09T06:51:28.610Z,100743.67
2022-09-09T06:52:32.639Z,100735.13
2022-09-09T06:53:37.421Z,100735.13
2022-09-09T06:58:25.146Z,100733.64
2022-09-09T06:59:29.088Z,100733.27
2022-09-09T07:00:33.165Z,100733.64
2022-09-09T07:01:42.078Z,100741.72
2022-09-09T07:02:47.257Z,100740.98
2022-09-09T07:03:53.489Z,100738.20
2022-09-09T07:04:57.338Z,100739.44
2022-09-09T07:06:03.094Z,100739.64
2022-09-09T07:07:07.012Z,100735.18
2022-09-09T07:08:14.015Z,100744.16
2022-09-09T07:09:18.242Z,100739.27
2022-09-09T07:10:25.034Z,100739.27
2022-09-09T07:11:32.666Z,100755.40
2022-09-09T07:12:36.536Z,100746.88
2022-09-09T07:13:40.483Z,100752.68
2022-09-09T07:14:44.408Z,100752.68
2022-09-09T07:15:48.426Z,100745.74
2022-09-09T07:16:54.537Z,100741.91
2022-09-09T07:18:01.243Z,100741.91
2022-09-09T07:19:07.001Z,100746.98
2022-09-09T07:20:12.818Z,100748.63
2022-09-09T07:21:18.551Z,100760.89
2022-09-09T07:22:23.848Z,100761.66
2022-09-09T07:23:27.856Z,100761.66
2022-09-09T07:24:31.781Z,100752.75
2022-09-09T07:25:35.756Z,100756.41
2022-09-09T07:26:40.975Z,100764.85
2022-09-09T07:27:44.900Z,100759.63
2022-09-09T07:28:49.734Z,100754.95
2022-09-09T07:29:54.823Z,100754.95
2022-09-09T07:31:02.836Z,100760.89
2022-09-09T07:32:06.932Z,100760.89
2022-09-09T07:33:11.326Z,100757.14
2022-09-09T07:34:15.266Z,100757.14
2022-09-09T07:35:20.520Z,100756.77
2022-09-09T07:36:32.489Z,100756.77
2022-09-09T07:37:32.846Z,100750.03
2022-09-09T07:38:44.845Z,100750.03
2022-09-09T07:39:48.834Z,100749.91
2022-09-09T07:40:52.895Z,100749.60
2022-09-09T07:41:56.833Z,100749.30
2022-09-09T07:43:01.021Z,100749.60
2022-09-09T07:44:16.365Z,100748.70
2022-09-09T07:45:20.290Z,100744.41
2022-09-09T07:46:26.827Z,100743.50
2022-09-09T07:47:31.982Z,100751.10
2022-09-09T07:48:36.612Z,100756.53
2022-09-09T07:49:42.178Z,100756.53
2022-09-09T07:50:47.661Z,100743.05
2022-09-09T07:51:51.671Z,100742.01
2022-09-09T07:52:57.602Z,100742.01
2022-09-09T07:54:05.026Z,100748.78
2022-09-09T07:55:08.882Z,100748.78
2022-09-09T07:56:16.977Z,100747.44
2022-09-09T07:57:22.248Z,100744.18
2022-09-09T07:58:26.351Z,100744.18
2022-09-09T07:59:30.350Z,100760.38
2022-09-09T08:00:34.366Z,100748.19
2022-09-09T08:01:41.671Z,100745.00
2022-09-09T08:02:45.824Z,100756.61
2022-09-09T08:03:56.653Z,100754.49
2022-09-09T08:05:00.844Z,100748.93
2022-09-09T08:06:07.134Z,100762.03
2022-09-09T08:07:11.084Z,100742.92
2022-09-09T08:08:15.022Z,100742.92
2022-09-09T08:09:19.108Z,100735.31
2022-09-09T08:10:23.549Z,100751.12
2022-09-09T08:11:29.605Z,100743.62
2022-09-09T08:12:36.355Z,100743.62
2022-09-09T08:13:41.859Z,100750.11
2022-09-09T08:14:45.731Z,100745.23
2022-09-09T08:15:49.719Z,100745.23
2022-09-09T08:16:54.978Z,100742.95
2022-09-09T08:17:59.288Z,100742.95
2022-09-09T08:19:03.581Z,100741.84
2022-09-09T08:20:07.916Z,100741.11
2022-09-09T08:21:17.679Z,100736.99
2022-09-09T08:22:21.670Z,100736.99
2022-09-09T08:23:25.676Z,100738.07
2022-09-09T08:24:31.333Z,100739.52
2022-09-09T08:25:35.277Z,100740.61
2022-09-09T08:26:42.319Z,100754.36
2022-09-09T08:27:46.333Z,100754.36
2022-09-09T08:28:51.907Z,100736.95
2022-09-09T08:29:55.932Z,100739.96
2022-09-09T08:31:12.075Z,100737.24
2022-09-09T08:32:16.025Z,100722.36
2022-09-09T08:33:19.961Z,100720.57
2022-09-09T08:34:24.832Z,100722.28
2022-09-09T08:35:28.768Z,100722.28
2022-09-09T08:36:36.396Z,100734.36
2022-09-09T08:37:42.355Z,100719.56
2022-09-09T08:38:50.985Z,100719.56
2022-09-09T08:39:54.956Z,100730.55
2022-09-09T08:41:04.661Z,100725.95
2022-09-09T08:42:11.623Z,100725.95
2022-09-09T08:43:16.597Z,100731.27
2022-09-09T08:44:49.047Z,100725.37
2022-09-09T08:46:01.855Z,100738.28
2022-09-09T08:47:31.782Z,100722.73
2022-09-09T08:48:41.786Z,100724.66
2022-09-09T08:49:54.669Z,100723.59
2022-09-09T08:51:00.325Z,100720.09
2022-09-09T08:52:08.823Z,100720.09
2022-09-09T08:53:23.059Z,100716.50
2022-09-09T08:54:50.590Z,100716.50
2022-09-09T08:55:53.538Z,100704.36
2022-09-09T08:56:58.037Z,100723.00
2022-09-09T08:58:07.702Z,100715.14
2022-09-09T08:59:15.005Z,100724.16
2022-09-09T09:00:19.698Z,100717.14
2022-09-09T09:01:44.981Z,100704.05
2022-09-09T09:02:51.983Z,100704.05
2022-09-09T09:04:18.288Z,100726.07
2022-09-09T09:05:49.091Z,100722.80
2022-09-09T09:06:58.779Z,100715.29
2022-09-09T09:08:11.730Z,100715.29
2022-09-09T09:09:33.416Z,100708.55
2022-09-09T09:10:42.835Z,100708.55
2022-09-09T09:11:52.124Z,100699.66
2022-09-09T09:12:57.527Z,100718.09
2022-09-09T09:14:24.837Z,100718.09
2022-09-09T09:15:34.343Z,100704.80
2022-09-09T09:16:41.432Z,100704.80
2022-09-09T09:17:48.266Z,100713.88
2022-09-09T09:18:53.978Z,100722.23
2022-09-09T09:19:59.608Z,100705.17
2022-09-09T09:21:24.483Z,100705.17
2022-09-09T09:22:44.201Z,100696.47
2022-09-09T09:23:51.159Z,100698.14
2022-09-09T09:25:00.872Z,100697.86
2022-09-09T09:26:10.439Z,100697.86
2022-09-09T09:27:18.983Z,100687.02
2022-09-09T09:28:28.784Z,100695.83
2022-09-09T09:29:32.766Z,100695.83
2022-09-09T09:30:39.717Z,100693.55
2022-09-09T09:31:58.099Z,100693.55
2022-09-09T09:33:20.721Z,100684.18
2022-09-09T09:34:25.674Z,100684.47
2022-09-09T09:35:29.778Z,100688.02
2022-09-09T09:36:49.205Z,100694.78
2022-09-09T09:40:13.731Z,100694.12
2022-09-09T09:41:33.935Z,100700.12
2022-09-09T09:42:38.688Z,100695.34
2022-09-09T09:43:43.454Z,100676.09
2022-09-09T09:44:47.808Z,100676.09
2022-09-09T09:46:07.219Z,100692.83
2022-09-09T09:47:15.291Z,100692.83
2022-09-09T09:48:19.304Z,100692.62
2022-09-09T09:49:24.090Z,100707.70
2022-09-09T09:50:33.592Z,100697.39
2022-09-09T09:51:35.719Z,100706.31
2022-09-09T09:53:54.537Z,100716.23
2022-09-09T09:55:08.255Z,100716.23
2022-09-09T09:56:17.699Z,100705.66
2022-09-09T09:57:26.828Z,100712.69
2022-09-09T09:58:41.103Z,100684.56
2022-09-09T09:59:47.901Z,100684.56
2022-09-09T10:00:53.566Z,100692.06
2022-09-09T10:02:00.498Z,100686.06
2022-09-09T10:03:07.470Z,100702.48
2022-09-09T10:04:22.944Z,100702.48
2022-09-09T10:05:35.848Z,100690.01
2022-09-09T10:06:38.793Z,100693.47
2022-09-09T10:07:43.080Z,100696.92
2022-09-09T10:08:48.023Z,100703.41
2022-09-09T10:09:57.754Z,100701.87
2022-09-09T10:11:28.741Z,100706.58
2022-09-09T10:13:01.018Z,100591.61
2022-09-09T10:14:08.063Z,100591.61
2022-09-09T10:15:24.228Z,100697.27
2022-09-09T10:16:55.694Z,100697.27
2022-09-09T10:18:02.694Z,100698.26
2022-09-09T10:19:12.412Z,100683.34
2022-09-09T10:20:40.262Z,100701.43
2022-09-09T10:22:20.329Z,100703.88
2022-09-09T10:24:00.632Z,100703.88
2022-09-09T10:25:13.300Z,100699.66
2022-09-09T10:26:20.720Z,100701.34
2022-09-09T10:27:39.722Z,100698.27
2022-09-09T10:29:02.815Z,100698.27
2022-09-09T10:30:21.524Z,100702.92
2022-09-09T10:31:52.395Z,100701.04
2022-09-09T10:33:24.860Z,100707.98
2022-09-09T10:34:37.713Z,100694.42
2022-09-09T10:35:44.626Z,100694.42
2022-09-09T10:36:51.016Z,100695.78
2022-09-09T10:38:15.956Z,100697.36
2022-09-09T10:39:25.815Z,100690.08
2022-09-09T10:40:36.223Z,100690.08
2022-09-09T10:41:43.246Z,100689.71
2022-09-09T10:42:47.430Z,100689.71
2022-09-09T10:44:19.420Z,100694.06
2022-09-09T10:45:41.689Z,100697.09
2022-09-09T10:47:02.139Z,100689.50
2022-09-09T10:48:09.282Z,100687.05
2022-09-09T10:49:31.581Z,100680.63
2022-09-09T10:51:00.431Z,100677.95
2022-09-09T10:52:07.948Z,100677.95
2022-09-09T10:53:14.882Z,100674.13
2022-09-09T10:54:27.760Z,100696.83
2022-09-09T10:55:34.626Z,100693.06
2022-09-09T10:56:41.865Z,100693.06
2022-09-09T10:57:49.623Z,100688.52
2022-09-09T10:59:11.541Z,100693.41
2022-09-09T11:01:57.711Z,100685.80
2022-09-09T11:03:04.359Z,100684.37
2022-09-09T11:04:20.340Z,100684.37
2022-09-09T11:05:33.124Z,100675.48
2022-09-09T11:06:40.262Z,100676.58
2022-09-09T11:07:58.573Z,100672.72
2022-09-09T11:09:04.895Z,100690.38
2022-09-09T11:10:12.149Z,100685.72
2022-09-09T11:11:21.814Z,100685.11
2022-09-09T11:12:28.316Z,100685.11
2022-09-09T11:13:54.465Z,100687.33
2022-09-09T11:15:07.351Z,100687.33
2022-09-09T11:16:26.495Z,100712.77
2022-09-09T11:17:39.197Z,100705.53
2022-09-09T11:18:46.197Z,100698.59
2022-09-09T11:19:50.281Z,100690.73
2022-09-09T11:20:57.315Z,100693.06
2022-09-09T11:22:03.923Z,100677.37
2022-09-09T11:23:16.941Z,100679.18
2022-09-09T11:24:26.848Z,100687.61
2022-09-09T11:25:47.053Z,100677.11
2022-09-09T11:27:02.779Z,100667.56
2022-09-09T11:28:15.511Z,100667.56
2022-09-09T11:29:41.852Z,100698.45
2022-09-09T11:31:00.768Z,100702.33
2022-09-09T11:32:25.767Z,100678.70
2022-09-09T11:33:44.601Z,100695.87
2022-09-09T11:35:15.740Z,100695.87
2022-09-09T11:36:57.258Z,100697.63
2022-09-09T11:38:19.125Z,100697.63
2022-09-09T11:39:51.378Z,100691.58
2022-09-09T11:41:01.378Z,100686.08
2022-09-09T11:42:15.099Z,100684.02
2022-09-09T11:43:43.182Z,100685.69
2022-09-09T11:44:47.667Z,100684.72
2022-09-09T11:46:01.451Z,100674.41
2022-09-09T11:47:07.420Z,100691.13
2022-09-09T11:48:42.960Z,100691.13
2022-09-09T11:49:46.978Z,100694.24
2022-09-09T11:51:04.386Z,100681.95
2022-09-09T11:52:43.034Z,100681.95
2022-09-09T11:54:01.166Z,100689.06
2022-09-09T11:55:22.956Z,100685.81
2022-09-09T11:56:33.050Z,100687.05
2022-09-09T11:57:38.316Z,100686.60
2022-09-09T11:58:50.108Z,100675.06
2022-09-09T11:59:53.798Z,100675.06
2022-09-09T12:00:57.886Z,100688.14
2022-09-09T12:02:03.883Z,100678.22
2022-09-09T12:03:09.422Z,100678.22
2022-09-09T12:04:35.786Z,100678.88
2022-09-09T12:05:42.801Z,100685.30
2022-09-09T12:06:55.474Z,100676.42
2022-09-09T12:08:01.326Z,100681.95
2022-09-09T12:09:39.475Z,100581.21
2022-09-09T12:10:44.975Z,100675.23
2022-09-09T12:11:50.039Z,100682.70
2022-09-09T12:12:54.109Z,100671.10
2022-09-09T12:14:00.997Z,100480.24
2022-09-09T12:15:13.879Z,100480.24
2022-09-09T12:16:32.954Z,100670.05
2022-09-09T12:17:54.077Z,100669.61
2022-09-09T12:19:22.024Z,100665.09
2022-09-09T12:20:34.197Z,100636.91
2022-09-09T12:21:47.067Z,100636.91
2022-09-09T12:23:19.489Z,100655.43
2022-09-09T12:24:26.400Z,100655.43
2022-09-09T12:26:06.178Z,100653.80
2022-09-09T12:27:26.565Z,100661.58
2022-09-09T12:28:54.517Z,100661.58
2022-09-09T12:30:07.493Z,100650.52
2022-09-09T12:31:23.180Z,100652.31
2022-09-09T12:32:28.752Z,100576.61
2022-09-09T12:33:39.552Z,100662.37
2022-09-09T12:35:06.935Z,100657.77
2022-09-09T12:36:21.249Z,100663.38
2022-09-09T12:37:39.628Z,100671.94
2022-09-09T12:40:07.120Z,100665.09
2022-09-09T12:41:26.335Z,100668.38
2022-09-09T12:42:35.949Z,100666.37
2022-09-09T12:43:39.496Z,100662.02
2022-09-09T12:44:55.003Z,100671.42
2022-09-09T12:46:13.842Z,100671.68
2022-09-09T12:47:24.354Z,100671.68
2022-09-09T12:48:32.094Z,100666.50
2022-09-09T12:49:40.885Z,100680.06
2022-09-09T12:50:50.613Z,100668.08
2022-09-09T12:51:55.284Z,100662.62
2022-09-09T12:53:14.221Z,100663.91
2022-09-09T12:54:30.053Z,100660.53
2022-09-09T12:55:33.401Z,100660.53
2022-09-09T12:56:38.962Z,100673.38
2022-09-09T12:57:45.478Z,100661.27
2022-09-09T12:58:52.884Z,100659.17
2022-09-09T12:59:59.940Z,100670.27
2022-09-09T13:01:06.429Z,100661.63
2022-09-09T13:02:25.380Z,100661.63
2022-09-09T13:03:30.721Z,100655.73
2022-09-09T13:04:34.865Z,100656.22
2022-09-09T13:05:40.324Z,100656.22
2022-09-09T13:06:44.501Z,100664.39
2022-09-09T13:08:36.988Z,100664.23
2022-09-09T13:08:56.232Z,100674.16
2022-09-09T13:10:01.738Z,100656.34
2022-09-09T13:11:11.342Z,100653.23
2022-09-09T13:12:18.377Z,100659.18
2022-09-09T13:13:26.949Z,100659.18
2022-09-09T13:14:33.969Z,100656.46
2022-09-09T13:15:40.377Z,100651.98
2022-09-09T13:16:44.591Z,100655.53
2022-09-09T13:17:57.579Z,100659.95
2022-09-09T13:19:18.567Z,100661.36
2022-09-09T13:20:25.290Z,100661.36
2022-09-09T13:21:39.631Z,100637.54